In Rescue
 
Open Full Screen Window  High Contrast Mode
Wind Gusting 14 knots
08
October 25, 2021 2:29 PM CDT
Weather Information
Wind Direction
  120 °
Wind Speed
  08 kt (9 mph)
Wind Gust
  14 kt (16 mph)
Altimeter
30.15 in
Visibility
10 SM
Temperature
10° C
50° F
Dewpoint
-02° C
28° F
Humidity
43%
1hr Rain Fall
00.00 in.
24hr Rain Fall
00.00 in.
Sky Condition
Clear
VFR

METAR KBDH 251929Z AUTO 12008G14KT 10SM CLR 10/M02 A3015 RMK AO2

FAA Disclaimer: The data displayed is for advisory purposes only and is not to be used for flight planning or operations.